createdAt,value
2016-12-05T00:01:00.676Z,1013.69
2016-12-05T00:01:31.760Z,1013.78
2016-12-05T00:02:21.958Z,1013.83
2016-12-05T00:02:43.807Z,1013.87
2016-12-05T00:03:34.581Z,1013.75
2016-12-05T00:04:08.811Z,1013.67
2016-12-05T00:06:15.606Z,1013.84
2016-12-05T00:06:44.852Z,1013.86
2016-12-05T00:07:11.333Z,1013.96
2016-12-05T00:07:42.596Z,1013.75
2016-12-05T00:08:09.092Z,1013.72
2016-12-05T00:08:35.605Z,1013.88
2016-12-05T00:09:03.098Z,1013.92
2016-12-05T00:09:25.853Z,1013.91
2016-12-05T00:09:52.382Z,1013.84
2016-12-05T00:10:14.195Z,1013.81
2016-12-05T00:10:38.498Z,1013.85
2016-12-05T00:11:00.238Z,1013.85
2016-12-05T00:11:34.201Z,1013.72
2016-12-05T00:12:45.055Z,1013.60
2016-12-05T00:13:07.796Z,1013.78
2016-12-05T00:14:03.250Z,1013.69
2016-12-05T00:14:26.998Z,1013.73
2016-12-05T00:14:57.258Z,1013.82
2016-12-05T00:15:19.996Z,1013.84
2016-12-05T00:15:46.400Z,1013.83
2016-12-05T00:16:08.334Z,1013.83
2016-12-05T00:16:30.066Z,1013.81
2016-12-05T00:17:02.280Z,1013.80
2016-12-05T00:17:33.538Z,1013.75
2016-12-05T00:18:02.795Z,1013.67
2016-12-05T00:18:28.099Z,1013.82
2016-12-05T00:19:02.019Z,1013.74
2016-12-05T00:19:29.332Z,1013.78
2016-12-05T00:20:18.589Z,1013.71
2016-12-05T00:20:45.115Z,1013.64
2016-12-05T00:22:10.907Z,1013.75
2016-12-05T00:22:40.381Z,1013.72
2016-12-05T00:23:06.902Z,1013.74
2016-12-05T00:23:33.666Z,1013.65
2016-12-05T00:24:04.104Z,1013.71
2016-12-05T00:25:13.927Z,1013.70
2016-12-05T00:25:35.765Z,1013.67
2016-12-05T00:26:01.106Z,1013.74
2016-12-05T00:26:58.884Z,1013.66
2016-12-05T00:27:25.232Z,1013.70
2016-12-05T00:27:51.727Z,1013.66
2016-12-05T00:28:18.835Z,1013.53
2016-12-05T00:28:43.327Z,1013.70
2016-12-05T00:29:05.066Z,1013.68
2016-12-05T00:29:37.328Z,1013.81
2016-12-05T00:30:36.112Z,1013.81
2016-12-05T00:30:57.857Z,1013.76
2016-12-05T00:31:24.357Z,1013.72
2016-12-05T00:31:50.929Z,1013.72
2016-12-05T00:32:39.265Z,1013.57
2016-12-05T00:33:08.597Z,1013.76
2016-12-05T00:33:31.324Z,1013.71
2016-12-05T00:33:56.021Z,1013.70
2016-12-05T00:34:17.797Z,1013.68
2016-12-05T00:34:44.748Z,1013.65
2016-12-05T00:35:39.930Z,1013.69
2016-12-05T00:36:32.674Z,1013.65
2016-12-05T00:36:56.978Z,1013.66
2016-12-05T00:37:57.925Z,1013.65
2016-12-05T00:38:19.760Z,1013.67
2016-12-05T00:38:46.248Z,1013.64
2016-12-05T00:39:40.250Z,1013.66
2016-12-05T00:40:16.290Z,1013.54
2016-12-05T00:40:38.066Z,1013.58
2016-12-05T00:40:59.791Z,1013.50
2016-12-05T00:41:22.533Z,1013.62
2016-12-05T00:41:51.613Z,1013.58
2016-12-05T00:43:20.326Z,1013.64
2016-12-05T00:46:00.378Z,1013.51
2016-12-05T00:46:31.645Z,1013.50
2016-12-05T00:46:57.081Z,1013.45
2016-12-05T00:47:26.144Z,1013.65
2016-12-05T00:47:52.636Z,1013.71
2016-12-05T00:48:20.636Z,1013.63
2016-12-05T00:48:42.352Z,1013.66
2016-12-05T00:49:08.854Z,1013.63
2016-12-05T00:49:38.232Z,1013.60
2016-12-05T00:50:26.464Z,1013.66
2016-12-05T00:51:47.779Z,1013.64
2016-12-05T00:52:51.862Z,1013.59
2016-12-05T00:53:16.308Z,1013.70
2016-12-05T00:53:38.077Z,1013.65
2016-12-05T00:54:04.593Z,1013.68
2016-12-05T00:54:31.084Z,1013.48
2016-12-05T00:55:33.494Z,1013.58
2016-12-05T00:56:56.170Z,1013.76
2016-12-05T00:57:20.796Z,1013.66
2016-12-05T00:57:47.299Z,1013.66
2016-12-05T00:58:13.798Z,1013.61
2016-12-05T00:58:35.531Z,1013.58
2016-12-05T00:59:06.794Z,1013.69
2016-12-05T00:59:28.539Z,1013.60
2016-12-05T00:59:52.253Z,1013.48
2016-12-05T01:00:13.991Z,1013.62
2016-12-05T01:00:36.704Z,1013.58
2016-12-05T01:02:30.335Z,1013.65
2016-12-05T01:02:56.829Z,1013.64
2016-12-05T01:03:21.308Z,1013.62
2016-12-05T01:03:47.812Z,1013.67
2016-12-05T01:04:16.996Z,1013.76
2016-12-05T01:05:10.030Z,1013.58
2016-12-05T01:05:31.743Z,1013.61
2016-12-05T01:06:23.854Z,1013.67
2016-12-05T01:06:48.549Z,1013.63
2016-12-05T01:07:16.054Z,1013.63
2016-12-05T01:07:37.807Z,1013.61
2016-12-05T01:07:59.544Z,1013.67
2016-12-05T01:08:22.265Z,1013.61
2016-12-05T01:08:48.766Z,1013.54
2016-12-05T01:09:15.081Z,1013.65
2016-12-05T01:09:36.805Z,1013.54
2016-12-05T01:09:59.533Z,1013.55
2016-12-05T01:10:52.544Z,1013.68
2016-12-05T01:11:18.874Z,1013.72
2016-12-05T01:11:40.592Z,1013.57
2016-12-05T01:12:29.862Z,1013.62
2016-12-05T01:12:59.807Z,1013.62
2016-12-05T01:13:22.596Z,1013.63
2016-12-05T01:13:49.309Z,1013.64
2016-12-05T01:14:13.786Z,1013.54
2016-12-05T01:14:38.129Z,1013.56
2016-12-05T01:15:02.467Z,1013.63
2016-12-05T01:15:24.191Z,1013.62
2016-12-05T01:15:48.582Z,1013.63
2016-12-05T01:16:10.353Z,1013.56
2016-12-05T01:16:58.612Z,1013.60
2016-12-05T01:17:26.108Z,1013.72
2016-12-05T01:17:52.631Z,1013.59
2016-12-05T01:18:19.155Z,1013.61
2016-12-05T01:18:45.655Z,1013.62
2016-12-05T01:19:12.190Z,1013.68
2016-12-05T01:19:35.930Z,1013.68
2016-12-05T01:20:03.135Z,1013.64
2016-12-05T01:20:24.946Z,1013.55
2016-12-05T01:20:46.672Z,1013.62
2016-12-05T01:21:08.396Z,1013.52
2016-12-05T01:21:30.119Z,1013.61
2016-12-05T01:21:59.334Z,1013.66
2016-12-05T01:22:23.576Z,1013.69
2016-12-05T01:22:55.842Z,1013.63
2016-12-05T01:23:17.585Z,1013.62
2016-12-05T01:24:05.872Z,1013.69
2016-12-05T01:24:29.594Z,1013.58
2016-12-05T01:24:51.324Z,1013.70
2016-12-05T01:25:45.337Z,1013.50
2016-12-05T01:28:10.015Z,1013.65
2016-12-05T01:28:36.509Z,1013.76
2016-12-05T01:28:58.444Z,1013.74
2016-12-05T01:29:24.957Z,1013.69
2016-12-05T01:29:51.453Z,1013.67
2016-12-05T01:30:17.961Z,1013.62
2016-12-05T01:30:44.480Z,1013.67
2016-12-05T01:31:38.674Z,1013.80
2016-12-05T01:32:01.414Z,1013.66
2016-12-05T01:32:23.134Z,1013.73
2016-12-05T01:33:25.509Z,1013.74
2016-12-05T01:33:56.761Z,1013.82
2016-12-05T01:34:40.822Z,1013.80
2016-12-05T01:35:33.601Z,1013.82
2016-12-05T01:35:59.924Z,1013.70
2016-12-05T01:36:28.409Z,1013.73
2016-12-05T01:36:54.906Z,1013.80
2016-12-05T01:37:17.630Z,1013.76
2016-12-05T01:37:39.383Z,1013.80
2016-12-05T01:38:05.893Z,1013.79
2016-12-05T01:38:27.675Z,1013.77
2016-12-05T01:38:52.380Z,1013.84
2016-12-05T01:39:16.637Z,1013.90
2016-12-05T01:39:38.423Z,1013.86
2016-12-05T01:40:00.158Z,1013.83
2016-12-05T01:40:21.881Z,1013.76
2016-12-05T01:40:53.347Z,1013.74
2016-12-05T01:41:46.368Z,1013.65
2016-12-05T01:42:08.165Z,1013.80
2016-12-05T01:42:35.670Z,1013.84
2016-12-05T01:43:28.749Z,1013.83
2016-12-05T01:43:55.248Z,1013.90
2016-12-05T01:44:26.514Z,1013.71
2016-12-05T01:44:48.246Z,1013.87
2016-12-05T01:45:10.023Z,1013.79
2016-12-05T01:45:31.758Z,1013.88
2016-12-05T01:45:58.248Z,1013.81
2016-12-05T01:46:19.966Z,1013.88
2016-12-05T01:46:42.690Z,1013.86
2016-12-05T01:47:09.184Z,1013.89
2016-12-05T01:47:31.937Z,1013.78
2016-12-05T01:48:29.704Z,1013.87
2016-12-05T01:48:56.204Z,1013.80
2016-12-05T01:49:17.931Z,1013.80
2016-12-05T01:49:39.669Z,1013.82
2016-12-05T01:50:06.168Z,1013.90
2016-12-05T01:50:28.884Z,1013.87
2016-12-05T01:50:50.623Z,1013.79
2016-12-05T01:51:16.303Z,1013.73
2016-12-05T01:51:37.903Z,1013.74
2016-12-05T01:52:04.406Z,1013.75
2016-12-05T01:52:26.130Z,1013.80
2016-12-05T01:52:47.863Z,1013.70
2016-12-05T01:53:22.096Z,1013.87
2016-12-05T01:53:48.596Z,1013.82
2016-12-05T01:54:10.335Z,1013.88
2016-12-05T01:54:32.051Z,1013.87
2016-12-05T01:54:53.815Z,1013.74
2016-12-05T01:55:15.543Z,1013.79
2016-12-05T01:55:37.280Z,1013.90
2016-12-05T01:56:02.923Z,1013.90
2016-12-05T01:56:24.700Z,1013.80
2016-12-05T01:56:46.444Z,1013.67
2016-12-05T01:57:34.717Z,1013.94
2016-12-05T01:57:56.457Z,1013.86
2016-12-05T01:58:22.963Z,1013.81
2016-12-05T01:58:47.270Z,1013.79
2016-12-05T01:59:09.069Z,1013.65
2016-12-05T01:59:35.961Z,1013.78
2016-12-05T01:59:57.712Z,1013.84
2016-12-05T02:00:19.540Z,1013.97
2016-12-05T02:00:41.265Z,1013.94
2016-12-05T02:01:09.252Z,1013.92
2016-12-05T02:01:36.733Z,1013.88
2016-12-05T02:01:58.447Z,1013.73
2016-12-05T02:02:20.174Z,1013.83
2016-12-05T02:03:43.639Z,1013.75
2016-12-05T02:04:10.150Z,1013.91
2016-12-05T02:04:31.902Z,1013.90
2016-12-05T02:04:58.401Z,1013.94
2016-12-05T02:05:23.776Z,1013.77
2016-12-05T02:07:28.654Z,1013.83
2016-12-05T02:07:50.465Z,1013.91
2016-12-05T02:08:20.931Z,1013.89
2016-12-05T02:08:42.664Z,1013.90
2016-12-05T02:09:18.545Z,1013.77
2016-12-05T02:10:06.806Z,1013.84
2016-12-05T02:10:28.540Z,1013.77
2016-12-05T02:10:53.016Z,1013.70
2016-12-05T02:11:17.419Z,1013.80
2016-12-05T02:12:17.080Z,1013.79
2016-12-05T02:13:07.898Z,1013.73
2016-12-05T02:14:15.844Z,1013.61
2016-12-05T02:14:42.349Z,1013.69
2016-12-05T02:15:05.114Z,1013.69
2016-12-05T02:15:27.092Z,1013.72
2016-12-05T02:15:56.175Z,1013.75
2016-12-05T02:16:17.918Z,1013.72
2016-12-05T02:16:40.671Z,1013.76
2016-12-05T02:17:02.408Z,1013.58
2016-12-05T02:17:28.915Z,1013.70
2016-12-05T02:17:50.640Z,1013.70
2016-12-05T02:19:28.097Z,1013.67
2016-12-05T02:20:31.452Z,1013.54
2016-12-05T02:20:57.965Z,1013.67
2016-12-05T02:21:24.564Z,1013.62
2016-12-05T02:21:52.056Z,1013.67
2016-12-05T02:22:20.557Z,1013.63
2016-12-05T02:22:47.046Z,1013.60
2016-12-05T02:23:52.086Z,1013.68
2016-12-05T02:24:20.130Z,1013.48
2016-12-05T02:24:41.867Z,1013.51
2016-12-05T02:25:09.376Z,1013.52
2016-12-05T02:26:02.973Z,1013.64
2016-12-05T02:26:27.324Z,1013.68
2016-12-05T02:26:51.901Z,1013.58
2016-12-05T02:27:14.685Z,1013.49
2016-12-05T02:27:36.406Z,1013.51
2016-12-05T02:28:02.932Z,1013.67
2016-12-05T02:28:32.219Z,1013.83
2016-12-05T02:28:53.973Z,1013.69
2016-12-05T02:29:23.240Z,1013.45
2016-12-05T02:29:49.503Z,1013.52
2016-12-05T02:30:11.266Z,1013.71
2016-12-05T02:30:37.762Z,1013.85
2016-12-05T02:31:07.611Z,1013.80
2016-12-05T02:31:31.936Z,1013.78
2016-12-05T02:31:54.700Z,1013.65
2016-12-05T02:32:23.812Z,1013.64
2016-12-05T02:32:48.402Z,1013.55
2016-12-05T02:33:39.127Z,1013.65
2016-12-05T02:34:00.874Z,1013.70
2016-12-05T02:34:27.398Z,1013.68
2016-12-05T02:34:49.193Z,1013.67
2016-12-05T02:35:15.998Z,1013.65
2016-12-05T02:35:37.732Z,1013.73
2016-12-05T02:36:06.851Z,1013.67
2016-12-05T02:36:31.490Z,1013.56
2016-12-05T02:36:57.805Z,1013.36
2016-12-05T02:37:24.352Z,1013.34
2016-12-05T02:37:50.842Z,1013.39
2016-12-05T02:38:12.573Z,1013.77
2016-12-05T02:38:39.074Z,1013.60
2016-12-05T02:39:00.812Z,1013.59
2016-12-05T02:39:54.893Z,1013.78
2016-12-05T02:40:16.611Z,1013.72
2016-12-05T02:40:39.360Z,1013.68
2016-12-05T02:41:37.178Z,1013.60
2016-12-05T02:41:59.943Z,1013.53
2016-12-05T02:42:26.484Z,1013.63
2016-12-05T02:42:49.204Z,1013.65
2016-12-05T02:43:10.941Z,1013.59
2016-12-05T02:43:32.732Z,1013.33
2016-12-05T02:44:23.554Z,1013.58
2016-12-05T02:44:54.835Z,1013.67
2016-12-05T02:45:59.430Z,1013.62
2016-12-05T02:46:25.914Z,1013.57
2016-12-05T02:46:48.665Z,1013.43
2016-12-05T02:47:15.001Z,1013.35
2016-12-05T02:47:41.538Z,1013.59
2016-12-05T02:48:34.347Z,1013.84
2016-12-05T02:50:17.994Z,1013.40
2016-12-05T02:50:44.494Z,1013.61
2016-12-05T02:51:10.985Z,1013.61
2016-12-05T02:51:38.503Z,1013.84
2016-12-05T02:52:00.286Z,1013.60
2016-12-05T02:52:23.001Z,1013.50
2016-12-05T02:52:47.695Z,1013.56
2016-12-05T02:53:46.559Z,1013.51
2016-12-05T02:54:08.308Z,1013.56
2016-12-05T02:54:35.026Z,1013.55
2016-12-05T02:54:56.756Z,1013.66
2016-12-05T02:55:54.612Z,1013.58
2016-12-05T02:56:21.110Z,1013.65
2016-12-05T02:56:47.463Z,1013.51
2016-12-05T02:57:10.275Z,1013.39
2016-12-05T02:58:03.394Z,1013.60
2016-12-05T02:58:32.331Z,1013.68
2016-12-05T02:59:25.319Z,1013.44
2016-12-05T02:59:51.872Z,1013.44
2016-12-05T03:00:14.609Z,1013.47
2016-12-05T03:00:41.123Z,1013.83
2016-12-05T03:01:35.219Z,1013.57
2016-12-05T03:01:59.605Z,1013.66
2016-12-05T03:02:26.196Z,1013.69
2016-12-05T03:03:25.942Z,1013.38
2016-12-05T03:03:52.480Z,1013.52
2016-12-05T03:04:14.207Z,1013.45
2016-12-05T03:04:44.108Z,1013.67
2016-12-05T03:05:37.120Z,1013.63
2016-12-05T03:05:58.894Z,1013.59
2016-12-05T03:06:20.623Z,1013.71
2016-12-05T03:06:47.108Z,1013.71
2016-12-05T03:07:14.426Z,1013.63
2016-12-05T03:07:36.162Z,1013.64
2016-12-05T03:08:30.161Z,1013.59
2016-12-05T03:08:54.783Z,1013.61
2016-12-05T03:09:17.585Z,1013.61
2016-12-05T03:09:43.921Z,1013.71
2016-12-05T03:10:11.343Z,1013.78
2016-12-05T03:10:37.621Z,1013.78
2016-12-05T03:11:05.926Z,1013.75
2016-12-05T03:11:35.071Z,1013.65
2016-12-05T03:12:01.562Z,1013.49
2016-12-05T03:12:33.832Z,1013.79
2016-12-05T03:13:08.524Z,1013.72
2016-12-05T03:13:33.009Z,1013.80
2016-12-05T03:14:04.275Z,1013.77
2016-12-05T03:14:30.771Z,1013.73
2016-12-05T03:14:52.506Z,1013.71
2016-12-05T03:15:24.977Z,1013.82
2016-12-05T03:15:52.473Z,1013.89
2016-12-05T03:16:23.740Z,1013.89
2016-12-05T03:16:51.241Z,1013.76
2016-12-05T03:17:18.297Z,1013.69
2016-12-05T03:18:13.277Z,1013.61
2016-12-05T03:19:13.745Z,1013.38
2016-12-05T03:19:38.194Z,1013.62
2016-12-05T03:20:31.176Z,1013.61
2016-12-05T03:20:53.897Z,1013.67
2016-12-05T03:21:20.401Z,1013.59
2016-12-05T03:21:47.898Z,1013.66
2016-12-05T03:22:09.659Z,1013.75
2016-12-05T03:22:36.146Z,1013.94
2016-12-05T03:22:58.871Z,1013.71
2016-12-05T03:23:25.436Z,1013.61
2016-12-05T03:23:47.322Z,1013.48
2016-12-05T03:24:10.157Z,1013.70
2016-12-05T03:24:36.473Z,1013.70
2016-12-05T03:25:35.224Z,1013.61
2016-12-05T03:26:02.717Z,1013.60
2016-12-05T03:26:31.953Z,1013.92
2016-12-05T03:26:53.682Z,1013.74
2016-12-05T03:27:24.943Z,1013.70
2016-12-05T03:27:47.664Z,1013.77
2016-12-05T03:28:36.893Z,1013.59
2016-12-05T03:28:58.623Z,1013.57
2016-12-05T03:29:25.159Z,1013.68
2016-12-05T03:30:20.724Z,1013.77
2016-12-05T03:30:47.336Z,1013.72
2016-12-05T03:31:09.071Z,1013.75
2016-12-05T03:31:31.827Z,1013.78
2016-12-05T03:31:54.543Z,1013.86
2016-12-05T03:32:17.361Z,1013.73
2016-12-05T03:33:47.244Z,1013.49
2016-12-05T03:34:40.256Z,1013.83
2016-12-05T03:35:03.005Z,1013.82
2016-12-05T03:35:25.800Z,1013.81
2016-12-05T03:35:57.066Z,1013.73
2016-12-05T03:36:35.002Z,1013.50
2016-12-05T03:36:56.732Z,1013.56
2016-12-05T03:37:18.530Z,1013.59
2016-12-05T03:37:45.457Z,1013.73
2016-12-05T03:38:36.637Z,1013.79
2016-12-05T03:39:03.135Z,1013.77
2016-12-05T03:39:29.651Z,1013.43
2016-12-05T03:39:51.414Z,1013.50
2016-12-05T03:40:13.147Z,1013.68
2016-12-05T03:40:42.571Z,1013.79
2016-12-05T03:41:04.311Z,1013.72
2016-12-05T03:41:28.064Z,1013.69
2016-12-05T03:41:49.786Z,1013.73
2016-12-05T03:42:11.529Z,1013.74
2016-12-05T03:43:02.362Z,1013.63
2016-12-05T03:43:24.106Z,1013.36
2016-12-05T03:43:45.824Z,1013.47
2016-12-05T03:44:07.579Z,1013.59
2016-12-05T03:44:35.078Z,1013.63
2016-12-05T03:44:56.863Z,1013.64
2016-12-05T03:45:18.596Z,1013.61
2016-12-05T03:45:43.165Z,1013.51
2016-12-05T03:46:04.991Z,1013.52
2016-12-05T03:46:33.921Z,1013.61
2016-12-05T03:47:00.408Z,1013.52
2016-12-05T03:47:22.184Z,1013.36
2016-12-05T03:47:44.114Z,1013.35
2016-12-05T03:48:10.631Z,1013.35
2016-12-05T03:48:37.176Z,1013.48
2016-12-05T03:49:02.511Z,1013.66
2016-12-05T03:49:28.999Z,1013.87
2016-12-05T03:50:27.767Z,1013.61
2016-12-05T03:50:49.550Z,1013.40
2016-12-05T03:51:11.294Z,1013.33
2016-12-05T03:51:34.076Z,1013.45
2016-12-05T03:51:55.829Z,1013.44
2016-12-05T03:52:20.172Z,1013.56
2016-12-05T03:52:46.711Z,1013.54
2016-12-05T03:53:08.455Z,1013.41
2016-12-05T03:53:38.731Z,1013.69
2016-12-05T03:54:00.478Z,1013.74
2016-12-05T03:54:22.226Z,1013.54
2016-12-05T03:54:49.734Z,1013.19
2016-12-05T03:55:41.612Z,1013.77
2016-12-05T03:56:03.381Z,1013.73
2016-12-05T03:56:25.118Z,1013.64
2016-12-05T03:56:46.861Z,1013.57
2016-12-05T03:57:12.313Z,1013.50
2016-12-05T03:58:14.586Z,1013.53
2016-12-05T03:58:40.905Z,1013.67
2016-12-05T03:59:07.416Z,1013.55
2016-12-05T03:59:29.170Z,1013.60
2016-12-05T04:00:06.026Z,1013.23
2016-12-05T04:00:27.760Z,1013.40
2016-12-05T04:00:59.053Z,1013.55
2016-12-05T04:01:21.955Z,1013.57
2016-12-05T04:01:43.693Z,1013.63
2016-12-05T04:02:39.498Z,1013.52
2016-12-05T04:03:34.503Z,1013.36
2016-12-05T04:04:23.050Z,1013.57
2016-12-05T04:04:49.573Z,1013.70
2016-12-05T04:05:15.276Z,1013.60
2016-12-05T04:05:41.815Z,1013.41
2016-12-05T04:06:30.193Z,1013.53
2016-12-05T04:07:30.650Z,1013.50
2016-12-05T04:07:57.144Z,1013.53
2016-12-05T04:08:18.884Z,1013.54
2016-12-05T04:08:49.329Z,1013.53
2016-12-05T04:09:11.063Z,1013.42
2016-12-05T04:09:32.785Z,1013.41
2016-12-05T04:09:54.522Z,1013.34
2016-12-05T04:10:18.968Z,1013.57
2016-12-05T04:10:40.746Z,1013.62
2016-12-05T04:11:02.542Z,1013.51
2016-12-05T04:11:29.037Z,1013.36
2016-12-05T04:11:50.779Z,1013.35
2016-12-05T04:12:13.506Z,1013.49
2016-12-05T04:12:37.963Z,1013.52
2016-12-05T04:13:07.460Z,1013.62
2016-12-05T04:14:00.476Z,1013.39
2016-12-05T04:14:22.248Z,1013.43
2016-12-05T04:14:43.998Z,1013.41
2016-12-05T04:15:05.920Z,1013.57
2016-12-05T04:15:30.337Z,1013.74
2016-12-05T04:15:57.853Z,1013.57
2016-12-05T04:16:25.335Z,1013.37
2016-12-05T04:17:17.393Z,1013.37
2016-12-05T04:18:53.957Z,1013.91
2016-12-05T04:19:15.718Z,1013.59
2016-12-05T04:19:37.445Z,1013.57
2016-12-05T04:19:59.182Z,1013.59
2016-12-05T04:20:21.017Z,1013.55
2016-12-05T04:20:42.778Z,1013.66
2016-12-05T04:21:12.139Z,1013.66
2016-12-05T04:22:01.406Z,1013.60
2016-12-05T04:22:26.159Z,1013.65
2016-12-05T04:22:50.737Z,1013.78
2016-12-05T04:23:43.467Z,1013.54
2016-12-05T04:24:05.211Z,1013.26
2016-12-05T04:24:29.679Z,1013.45
2016-12-05T04:24:56.190Z,1013.72
2016-12-05T04:25:25.431Z,1013.54
2016-12-05T04:25:47.150Z,1013.70
2016-12-05T04:26:09.881Z,1013.71
2016-12-05T04:26:34.351Z,1013.53
2016-12-05T04:27:03.721Z,1013.63
2016-12-05T04:27:31.216Z,1013.69
2016-12-05T04:27:55.877Z,1013.73
2016-12-05T04:28:22.369Z,1013.75
2016-12-05T04:29:10.637Z,1013.59
2016-12-05T04:29:32.378Z,1013.60
2016-12-05T04:30:32.786Z,1013.70
2016-12-05T04:30:59.301Z,1013.63
2016-12-05T04:31:28.821Z,1013.52
2016-12-05T04:32:42.029Z,1013.24
2016-12-05T04:33:11.377Z,1013.48
2016-12-05T04:34:07.518Z,1013.60
2016-12-05T04:35:02.757Z,1013.36
2016-12-05T04:35:24.498Z,1013.40
2016-12-05T04:36:58.276Z,1013.54
2016-12-05T04:37:20.135Z,1013.55
2016-12-05T04:37:45.389Z,1013.40
2016-12-05T04:38:14.784Z,1013.28
2016-12-05T04:38:36.498Z,1013.42
2016-12-05T04:38:59.244Z,1013.43
2016-12-05T04:39:22.007Z,1013.43
2016-12-05T04:39:48.476Z,1013.68
2016-12-05T04:40:16.036Z,1013.73
2016-12-05T04:40:40.812Z,1013.72
2016-12-05T04:41:03.534Z,1013.54
2016-12-05T04:41:57.374Z,1013.52
2016-12-05T04:42:51.193Z,1013.75
2016-12-05T04:43:20.473Z,1013.51
2016-12-05T04:43:42.200Z,1013.61
2016-12-05T04:44:17.209Z,1013.55
2016-12-05T04:44:43.699Z,1013.44
2016-12-05T04:45:07.477Z,1013.48
2016-12-05T04:45:29.191Z,1013.72
2016-12-05T04:45:50.919Z,1013.64
2016-12-05T04:46:17.406Z,1013.36
2016-12-05T04:47:11.398Z,1013.58
2016-12-05T04:47:33.191Z,1013.50
2016-12-05T04:49:07.481Z,1013.69
2016-12-05T04:49:29.215Z,1013.68
2016-12-05T04:49:59.324Z,1013.73
2016-12-05T04:50:25.836Z,1013.67
2016-12-05T04:50:52.344Z,1013.72
2016-12-05T04:51:14.064Z,1013.63
2016-12-05T04:51:41.957Z,1013.48
2016-12-05T04:52:08.473Z,1013.40
2016-12-05T04:52:33.243Z,1013.58
2016-12-05T04:52:56.967Z,1013.48
2016-12-05T04:53:18.707Z,1013.62
2016-12-05T04:53:46.925Z,1013.46
2016-12-05T04:54:20.795Z,1013.44
2016-12-05T04:54:42.540Z,1013.52
2016-12-05T04:55:04.278Z,1013.61
2016-12-05T04:55:26.031Z,1013.69
2016-12-05T04:55:55.178Z,1013.65
2016-12-05T04:56:21.978Z,1013.54
2016-12-05T04:57:25.310Z,1013.56
2016-12-05T04:57:47.093Z,1013.42
2016-12-05T04:58:13.588Z,1013.40
2016-12-05T04:58:42.831Z,1013.48
2016-12-05T04:59:10.314Z,1013.40
2016-12-05T04:59:41.577Z,1013.34
2016-12-05T05:00:12.850Z,1013.31
2016-12-05T05:00:44.251Z,1013.44
2016-12-05T05:01:42.005Z,1013.26
2016-12-05T05:02:07.499Z,1013.21
2016-12-05T05:03:09.863Z,1013.30
2016-12-05T05:03:31.651Z,1013.35
2016-12-05T05:03:53.369Z,1013.49
2016-12-05T05:04:19.869Z,1013.42
2016-12-05T05:04:49.345Z,1013.42
2016-12-05T05:05:37.435Z,1013.31
2016-12-05T05:06:00.367Z,1013.41
2016-12-05T05:06:30.543Z,1013.35
2016-12-05T05:06:54.847Z,1013.35
2016-12-05T05:07:17.724Z,1013.34
2016-12-05T05:07:40.305Z,1013.48
2016-12-05T05:08:06.820Z,1013.56
2016-12-05T05:08:32.196Z,1013.63
2016-12-05T05:08:53.952Z,1013.44
2016-12-05T05:09:16.688Z,1013.51
2016-12-05T05:09:48.741Z,1013.42
2016-12-05T05:10:58.552Z,1013.59
2016-12-05T05:11:20.293Z,1013.42
2016-12-05T05:11:46.806Z,1013.46
2016-12-05T05:12:13.313Z,1013.55
2016-12-05T05:12:37.938Z,1013.56
2016-12-05T05:13:12.844Z,1013.43
2016-12-05T05:15:04.624Z,1013.21
2016-12-05T05:16:20.320Z,1014.07
2016-12-05T05:16:43.033Z,1013.35
2016-12-05T05:17:04.768Z,1013.24
2016-12-05T05:17:32.070Z,1013.43
2016-12-05T05:17:53.792Z,1013.68
2016-12-05T05:18:16.537Z,1013.74
2016-12-05T05:18:38.251Z,1013.68
2016-12-05T05:19:10.510Z,1013.55
2016-12-05T05:19:37.005Z,1013.44
2016-12-05T05:19:58.769Z,1013.35
2016-12-05T05:20:20.490Z,1013.51
2016-12-05T05:20:46.985Z,1013.66
2016-12-05T05:21:08.727Z,1013.57
2016-12-05T05:21:30.458Z,1013.47
2016-12-05T05:21:52.195Z,1013.47
2016-12-05T05:22:21.296Z,1013.50
2016-12-05T05:22:43.008Z,1013.44
2016-12-05T05:23:04.739Z,1013.51
2016-12-05T05:23:28.469Z,1013.56
2016-12-05T05:23:50.178Z,1013.60
2016-12-05T05:24:12.894Z,1013.56
2016-12-05T05:24:35.627Z,1013.52
2016-12-05T05:26:09.244Z,1013.43
2016-12-05T05:26:30.998Z,1013.58
2016-12-05T05:26:52.822Z,1013.61
2016-12-05T05:27:22.237Z,1013.51
2016-12-05T05:27:43.948Z,1013.47
2016-12-05T05:28:10.480Z,1013.64
2016-12-05T05:28:36.975Z,1013.76
2016-12-05T05:29:03.467Z,1013.54
2016-12-05T05:29:29.949Z,1013.56
2016-12-05T05:29:51.694Z,1013.71
2016-12-05T05:30:13.416Z,1013.75
2016-12-05T05:30:35.130Z,1013.68
2016-12-05T05:30:56.852Z,1013.67
2016-12-05T05:31:18.569Z,1013.70
2016-12-05T05:31:40.315Z,1013.74
2016-12-05T05:32:06.799Z,1013.68
2016-12-05T05:32:28.516Z,1013.67
2016-12-05T05:32:54.998Z,1013.37
2016-12-05T05:33:21.483Z,1013.57
2016-12-05T05:33:43.201Z,1013.62
2016-12-05T05:34:04.922Z,1013.70
2016-12-05T05:34:26.652Z,1013.73
2016-12-05T05:34:48.371Z,1013.73
2016-12-05T05:35:10.086Z,1013.57
2016-12-05T05:35:31.797Z,1013.70
2016-12-05T05:35:55.740Z,1013.53
2016-12-05T05:36:17.442Z,1013.49
2016-12-05T05:36:39.152Z,1013.49
2016-12-05T05:37:00.868Z,1013.51
2016-12-05T05:37:22.578Z,1013.64
2016-12-05T05:37:44.286Z,1013.71
2016-12-05T05:38:06.163Z,1013.71
2016-12-05T05:38:27.752Z,1013.80
2016-12-05T05:38:49.481Z,1013.73
2016-12-05T05:39:15.957Z,1013.62
2016-12-05T05:39:38.198Z,1013.64
2016-12-05T05:39:59.919Z,1013.69
2016-12-05T05:40:21.642Z,1013.75
2016-12-05T05:40:43.362Z,1013.76
2016-12-05T05:41:05.102Z,1013.76
2016-12-05T05:41:26.828Z,1013.63
2016-12-05T05:41:48.560Z,1013.64
2016-12-05T05:42:10.275Z,1013.69
2016-12-05T05:42:31.990Z,1013.65
2016-12-05T05:42:53.710Z,1013.63
2016-12-05T05:43:15.422Z,1013.60
2016-12-05T05:43:37.156Z,1013.60
2016-12-05T05:43:59.862Z,1013.63
2016-12-05T05:44:21.578Z,1013.59
2016-12-05T05:44:43.291Z,1013.53
2016-12-05T05:45:05.017Z,1013.55
2016-12-05T05:45:26.725Z,1013.49
2016-12-05T05:45:48.434Z,1013.45
2016-12-05T05:46:10.155Z,1013.50
2016-12-05T05:46:31.890Z,1013.51
2016-12-05T05:46:53.597Z,1013.69
2016-12-05T05:47:16.309Z,1013.81
2016-12-05T05:47:38.024Z,1013.72
2016-12-05T05:47:59.898Z,1013.71
2016-12-05T05:48:21.720Z,1013.72
2016-12-05T05:48:43.460Z,1013.69
2016-12-05T05:49:05.167Z,1013.61
2016-12-05T05:49:26.880Z,1013.75
2016-12-05T05:49:48.602Z,1013.71
2016-12-05T05:50:10.321Z,1013.53
2016-12-05T05:50:32.063Z,1013.37
2016-12-05T05:50:53.776Z,1013.53
2016-12-05T05:51:15.493Z,1013.48
2016-12-05T05:51:37.206Z,1013.62
2016-12-05T05:51:58.919Z,1013.65
2016-12-05T05:52:20.632Z,1013.56
2016-12-05T05:52:42.344Z,1013.51
2016-12-05T05:53:04.125Z,1013.39
2016-12-05T05:53:25.849Z,1013.50
2016-12-05T05:53:47.563Z,1013.61
2016-12-05T05:54:10.274Z,1013.70
2016-12-05T05:54:31.987Z,1013.74
2016-12-05T05:54:53.707Z,1013.50
2016-12-05T05:55:46.691Z,1013.58
2016-12-05T05:56:08.391Z,1013.39
2016-12-05T05:56:30.133Z,1013.51
2016-12-05T05:56:51.859Z,1013.51
2016-12-05T05:57:13.586Z,1013.67
2016-12-05T05:57:35.317Z,1013.79
2016-12-05T05:57:57.028Z,1013.81
2016-12-05T05:58:18.756Z,1013.79
2016-12-05T05:58:40.464Z,1013.67
2016-12-05T05:59:02.180Z,1013.60
2016-12-05T05:59:28.673Z,1013.71
2016-12-05T05:59:50.382Z,1013.69
2016-12-05T06:00:12.095Z,1013.81
2016-12-05T06:00:33.810Z,1013.70
2016-12-05T06:00:55.521Z,1013.78
2016-12-05T06:01:17.241Z,1013.68
2016-12-05T06:01:38.955Z,1013.55
2016-12-05T06:02:00.691Z,1013.79
2016-12-05T06:02:22.402Z,1013.44
2016-12-05T06:02:44.118Z,1013.68
2016-12-05T06:03:05.837Z,1013.60
2016-12-05T06:03:27.551Z,1013.65
2016-12-05T06:03:49.262Z,1013.65
2016-12-05T06:04:10.979Z,1013.65
2016-12-05T06:04:32.701Z,1013.66
2016-12-05T06:04:54.404Z,1013.67
2016-12-05T06:05:16.119Z,1013.76
2016-12-05T06:05:37.829Z,1013.70
2016-12-05T06:05:59.547Z,1013.64
2016-12-05T06:06:21.253Z,1013.77
2016-12-05T06:06:42.971Z,1013.66
2016-12-05T06:07:04.707Z,1013.61
2016-12-05T06:07:26.410Z,1013.59